Time;durP1;ratioP1;P1;durP2;ratioP2;P2;SDS_P1;SDS_P2;PMS_P1;PMS_P2;Temp;Humidity;BMP_temperature;BMP_pressure;BME280_temperature;BME280_humidity;BME280_pressure;Samples;Min_cycle;Max_cycle;Signal;HPM_P1;HPM_P2
2022/03/15 00:02:12;;;;;;;7.80;4.95;;;19.60;39.60;;;;;;5117687;28;20031;-44
2022/03/15 00:04:39;;;;;;;9.43;4.65;;;19.60;39.60;;;;;;5117438;28;20028;-39
2022/03/15 00:07:05;;;;;;;8.85;5.28;;;19.60;39.60;;;;;;5119356;28;20496;-37
2022/03/15 00:09:31;;;;;;;10.02;5.13;;;19.50;39.50;;;;;;5120467;28;20015;-42
2022/03/15 00:11:57;;;;;;;6.40;4.82;;;19.50;39.50;;;;;;5119921;28;20020;-38
2022/03/15 00:14:24;;;;;;;7.82;5.13;;;19.50;39.60;;;;;;5119190;28;20131;-39
2022/03/15 00:16:49;;;;;;;7.18;4.90;;;19.50;39.60;;;;;;5100598;28;20008;-38
2022/03/15 00:19:16;;;;;;;8.63;5.00;;;19.50;39.60;;;;;;5117830;28;20466;-39
2022/03/15 00:21:43;;;;;;;9.32;5.07;;;19.50;39.60;;;;;;5117187;28;20042;-37
2022/03/15 00:24:10;;;;;;;9.70;5.65;;;19.50;39.70;;;;;;5117255;28;20015;-37
2022/03/15 00:26:36;;;;;;;7.35;5.05;;;19.50;39.70;;;;;;5117864;28;20051;-39
2022/03/15 00:29:02;;;;;;;9.02;5.13;;;19.50;39.70;;;;;;5099738;28;20088;-37
2022/03/15 00:31:28;;;;;;;8.85;5.30;;;19.50;39.60;;;;;;5118309;28;20016;-37
2022/03/15 00:33:55;;;;;;;7.07;5.03;;;19.50;39.60;;;;;;5119022;28;20014;-37
2022/03/15 00:36:21;;;;;;;8.27;5.15;;;19.50;39.60;;;;;;5119213;28;20022;-37
2022/03/15 00:38:47;;;;;;;9.43;5.00;;;19.40;39.60;;;;;;5118692;28;20382;-37
2022/03/15 00:41:14;;;;;;;8.50;4.85;;;19.40;39.60;;;;;;5119737;28;20422;-37
2022/03/15 00:43:39;;;;;;;9.88;5.55;;;19.50;39.60;;;;;;5119212;28;20004;-37
2022/03/15 00:46:08;;;;;;;9.65;5.43;;;19.50;39.60;;;;;;5116676;28;20026;-37
2022/03/15 00:48:34;;;;;;;8.90;5.30;;;19.50;39.60;;;;;;5117469;28;20011;-41
2022/03/15 00:51:00;;;;;;;9.38;5.07;;;19.50;39.60;;;;;;5117349;28;20501;-37
2022/03/15 00:53:26;;;;;;;6.57;4.70;;;19.40;39.60;;;;;;5117566;28;20020;-37
2022/03/15 00:55:53;;;;;;;10.38;5.85;;;19.40;39.50;;;;;;5116364;28;20047;-37
2022/03/15 00:58:18;;;;;;;7.55;5.20;;;19.50;39.60;;;;;;5116223;28;20098;-36
2022/03/15 01:00:48;;;;;;;9.45;5.43;;;19.50;39.60;;;;;;5116325;28;20016;-37
2022/03/15 01:03:14;;;;;;;11.68;5.45;;;19.50;39.60;;;;;;5116289;28;20028;-38
2022/03/15 01:05:40;;;;;;;8.85;5.75;;;19.40;39.40;;;;;;5116167;28;20023;-37
2022/03/15 01:08:05;;;;;;;8.07;5.20;;;19.50;39.50;;;;;;5098159;28;20028;-36
2022/03/15 01:10:32;;;;;;;8.40;5.65;;;19.50;40.10;;;;;;5115966;28;20025;-38
2022/03/15 01:12:58;;;;;;;8.27;5.70;;;19.40;39.50;;;;;;5099197;28;20019;-40
2022/03/15 01:15:25;;;;;;;10.13;5.88;;;19.40;39.50;;;;;;5118479;28;20428;-38
2022/03/15 01:17:51;;;;;;;8.38;5.60;;;19.40;39.50;;;;;;5117286;28;20020;-39
2022/03/15 01:20:17;;;;;;;9.27;5.88;;;19.40;39.50;;;;;;5117135;28;20016;-37
2022/03/15 01:22:43;;;;;;;10.60;5.65;;;19.40;39.60;;;;;;5116535;28;20016;-36
2022/03/15 01:25:10;;;;;;;8.00;5.50;;;19.40;39.60;;;;;;5116451;28;20027;-39
2022/03/15 01:27:36;;;;;;;8.70;5.60;;;19.40;39.60;;;;;;5097277;28;20024;-37
2022/03/15 01:30:02;;;;;;;9.65;6.15;;;19.40;39.60;;;;;;5115874;28;20023;-36
2022/03/15 01:32:29;;;;;;;7.53;5.25;;;19.40;39.60;;;;;;5115848;28;20037;-36
2022/03/15 01:34:55;;;;;;;9.60;6.00;;;19.40;39.70;;;;;;5115855;28;20022;-37
2022/03/15 01:37:21;;;;;;;9.68;5.68;;;19.40;39.60;;;;;;5116437;28;20477;-36
2022/03/15 01:39:48;;;;;;;7.57;5.25;;;19.40;39.60;;;;;;5114931;28;20085;-37
2022/03/15 01:42:15;;;;;;;7.20;5.50;;;19.40;39.60;;;;;;5117000;28;20020;-37
2022/03/15 01:44:46;;;;;;;8.77;5.68;;;19.30;39.70;;;;;;5116932;28;20104;-37
2022/03/15 01:47:13;;;;;;;9.68;5.57;;;19.30;39.70;;;;;;5098447;28;20020;-37
2022/03/15 01:49:39;;;;;;;10.70;5.68;;;19.30;39.60;;;;;;5116243;28;20019;-37
2022/03/15 01:52:05;;;;;;;8.60;5.65;;;19.30;39.70;;;;;;5116754;28;20008;-37
2022/03/15 01:54:32;;;;;;;8.55;5.55;;;19.30;39.70;;;;;;5098677;28;20018;-36
2022/03/15 01:56:59;;;;;;;9.60;6.43;;;19.30;39.70;;;;;;5115688;28;20048;-36
2022/03/15 01:59:26;;;;;;;9.43;5.97;;;19.30;39.70;;;;;;5116110;28;20042;-37
2022/03/15 02:01:51;;;;;;;10.07;5.68;;;19.30;39.70;;;;;;5115725;28;20022;-37
2022/03/15 02:04:18;;;;;;;9.23;5.85;;;19.30;39.70;;;;;;5115635;28;20023;-36
2022/03/15 02:06:50;;;;;;;8.43;5.32;;;19.30;39.60;;;;;;5115426;28;20031;-35
2022/03/15 02:09:15;;;;;;;8.20;5.43;;;19.30;39.70;;;;;;5115685;28;20470;-36
2022/03/15 02:11:43;;;;;;;11.68;6.00;;;19.30;39.70;;;;;;5115469;28;20030;-36
2022/03/15 02:14:09;;;;;;;9.07;5.85;;;19.20;39.60;;;;;;5115367;28;20043;-36
2022/03/15 02:16:35;;;;;;;7.88;5.50;;;19.20;39.70;;;;;;5115756;28;20065;-37
2022/03/15 02:19:03;;;;;;;11.65;6.13;;;19.20;39.70;;;;;;5115923;28;20016;-36
2022/03/15 02:21:29;;;;;;;10.20;5.57;;;19.20;39.60;;;;;;5115832;28;20019;-36
2022/03/15 02:23:54;;;;;;;8.70;5.97;;;19.30;39.70;;;;;;5116290;28;20019;-36
2022/03/15 02:26:21;;;;;;;9.07;5.75;;;19.20;40.10;;;;;;5116055;28;20034;-37
2022/03/15 02:28:46;;;;;;;9.15;5.60;;;19.20;39.60;;;;;;5116740;28;20023;-37
2022/03/15 02:31:12;;;;;;;8.45;5.40;;;19.30;39.60;;;;;;5116137;28;20443;-36
2022/03/15 02:33:38;;;;;;;8.85;5.68;;;19.20;39.60;;;;;;5116661;28;20513;-36
2022/03/15 02:36:04;;;;;;;8.55;5.70;;;19.20;39.60;;;;;;5098768;28;20020;-36
2022/03/15 02:38:30;;;;;;;7.88;5.53;;;19.20;39.70;;;;;;5116574;28;20015;-36
2022/03/15 02:40:58;;;;;;;7.85;5.43;;;19.20;39.60;;;;;;5097443;28;20047;-38
2022/03/15 02:43:24;;;;;;;9.48;5.72;;;19.20;39.70;;;;;;5115226;28;20030;-39
2022/03/15 02:45:49;;;;;;;9.65;6.50;;;19.20;39.60;;;;;;5097562;28;20019;-38
2022/03/15 02:48:15;;;;;;;9.48;5.95;;;19.20;39.60;;;;;;5097418;28;20543;-46
2022/03/15 02:50:41;;;;;;;8.25;5.35;;;19.20;39.60;;;;;;5115954;28;20107;-41
2022/03/15 02:53:08;;;;;;;8.35;5.50;;;19.20;39.70;;;;;;5116067;28;20435;-40
2022/03/15 02:55:34;;;;;;;8.45;5.50;;;19.20;39.60;;;;;;5115787;28;20076;-39
2022/03/15 02:58:00;;;;;;;10.65;5.70;;;19.20;39.60;;;;;;5115085;28;20020;-40
2022/03/15 03:00:30;;;;;;;8.73;5.60;;;19.20;39.60;;;;;;5114376;28;20008;-39
2022/03/15 03:02:55;;;;;;;8.27;5.50;;;19.10;39.50;;;;;;5114515;28;20016;-39
2022/03/15 03:05:22;;;;;;;9.45;5.72;;;19.20;39.60;;;;;;5112708;28;20477;-45
2022/03/15 03:07:47;;;;;;;7.72;5.57;;;19.20;39.50;;;;;;5079127;28;20031;-42
2022/03/15 03:10:17;;;;;;;9.73;5.93;;;19.10;39.50;;;;;;5118227;28;20008;-43
2022/03/15 03:12:44;;;;;;;8.52;5.25;;;19.10;39.50;;;;;;5118865;28;20011;-44
2022/03/15 03:15:13;;;;;;;9.85;5.80;;;19.10;39.40;;;;;;5118871;28;20037;-40
2022/03/15 03:17:42;;;;;;;8.00;5.80;;;19.10;39.50;;;;;;5118111;28;20484;-41
2022/03/15 03:20:10;;;;;;;9.23;5.70;;;19.10;39.60;;;;;;5117995;28;20012;-42
2022/03/15 03:22:36;;;;;;;7.18;5.32;;;19.10;39.60;;;;;;5118740;28;20027;-41
2022/03/15 03:25:06;;;;;;;9.52;5.40;;;19.10;39.60;;;;;;5118609;28;20019;-37
2022/03/15 03:27:32;;;;;;;9.95;5.60;;;19.10;39.60;;;;;;5117874;28;20024;-37
2022/03/15 03:29:59;;;;;;;8.35;4.82;;;19.10;39.60;;;;;;5117627;28;20027;-40
2022/03/15 03:32:25;;;;;;;8.35;5.38;;;19.10;39.70;;;;;;5117811;28;20020;-37
2022/03/15 03:34:51;;;;;;;9.85;5.50;;;19.10;39.60;;;;;;5117935;28;20027;-40
2022/03/15 03:37:17;;;;;;;9.23;5.75;;;19.10;39.50;;;;;;5101132;28;20149;-38
2022/03/15 03:39:43;;;;;;;8.07;5.05;;;19.10;39.60;;;;;;5120942;28;20040;-41
2022/03/15 03:42:10;;;;;;;7.63;5.22;;;19.00;39.60;;;;;;5103469;28;20020;-38
2022/03/15 03:44:36;;;;;;;7.70;4.95;;;19.00;39.60;;;;;;5120973;28;20028;-37
2022/03/15 03:47:03;;;;;;;8.05;5.20;;;19.00;39.50;;;;;;5119976;28;20093;-38
2022/03/15 03:49:35;;;;;;;7.88;5.38;;;19.00;39.60;;;;;;5120028;28;20019;-37
2022/03/15 03:52:01;;;;;;;8.35;5.30;;;19.00;39.60;;;;;;5119769;28;20023;-38
2022/03/15 03:54:27;;;;;;;10.13;5.20;;;19.00;39.60;;;;;;5119399;28;20095;-39
2022/03/15 03:56:53;;;;;;;9.38;5.43;;;19.00;39.60;;;;;;5119712;28;20019;-38
2022/03/15 03:59:19;;;;;;;8.20;5.10;;;19.00;39.60;;;;;;5101236;28;20016;-37
2022/03/15 04:01:45;;;;;;;7.70;4.82;;;19.00;39.50;;;;;;5118731;28;20092;-38
2022/03/15 04:04:10;;;;;;;7.93;5.50;;;19.00;39.60;;;;;;5100195;28;20469;-38
2022/03/15 04:06:38;;;;;;;7.65;5.22;;;19.00;39.60;;;;;;5117979;28;20020;-37
2022/03/15 04:09:04;;;;;;;9.25;5.20;;;19.00;39.70;;;;;;5117390;28;20023;-38
2022/03/15 04:11:31;;;;;;;8.93;5.35;;;19.00;39.60;;;;;;5099178;28;20016;-37
2022/03/15 04:13:59;;;;;;;7.43;5.13;;;19.00;39.60;;;;;;5116844;28;20016;-37
2022/03/15 04:16:28;;;;;;;7.38;5.00;;;19.00;39.70;;;;;;5117183;28;20420;-38
2022/03/15 04:18:53;;;;;;;6.68;4.75;;;19.00;39.70;;;;;;5098903;28;20023;-38
2022/03/15 04:21:24;;;;;;;9.02;5.60;;;19.00;39.70;;;;;;5116369;28;20019;-44
2022/03/15 04:23:54;;;;;;;8.07;4.75;;;19.00;39.60;;;;;;5117414;28;20074;-41
2022/03/15 04:26:20;;;;;;;8.13;5.18;;;19.00;39.70;;;;;;5117212;28;20565;-45
2022/03/15 04:28:45;;;;;;;8.13;4.82;;;19.00;39.70;;;;;;5117221;28;20032;-39
2022/03/15 04:31:12;;;;;;;8.50;5.25;;;19.00;39.70;;;;;;5099339;28;20011;-43
2022/03/15 04:33:37;;;;;;;7.63;5.05;;;19.00;39.70;;;;;;5098916;28;20488;-39
2022/03/15 04:36:03;;;;;;;8.30;4.93;;;18.90;39.60;;;;;;5117143;28;20117;-40
2022/03/15 04:38:30;;;;;;;7.72;4.70;;;18.90;39.70;;;;;;5117354;28;20020;-39
2022/03/15 04:40:58;;;;;;;7.40;5.13;;;18.90;39.70;;;;;;5116620;28;20044;-39
2022/03/15 04:43:24;;;;;;;7.22;4.95;;;18.90;39.60;;;;;;5099079;28;20019;-41
2022/03/15 04:45:50;;;;;;;7.40;4.63;;;19.00;39.60;;;;;;5116979;28;20031;-37
2022/03/15 04:48:18;;;;;;;6.13;4.60;;;19.00;39.50;;;;;;5098735;28;20100;-36
2022/03/15 04:50:44;;;;;;;7.57;4.93;;;19.00;39.50;;;;;;5116590;28;20466;-38
2022/03/15 04:53:10;;;;;;;7.63;4.68;;;19.10;39.40;;;;;;5116893;28;20030;-37
2022/03/15 04:55:37;;;;;;;6.60;4.50;;;19.20;39.10;;;;;;5116751;28;20046;-38
2022/03/15 04:58:03;;;;;;;8.40;4.90;;;19.30;38.90;;;;;;5117023;28;20026;-38
2022/03/15 05:00:28;;;;;;;6.60;4.82;;;19.40;38.60;;;;;;5115374;27;20019;-42
2022/03/15 05:02:55;;;;;;;8.88;4.75;;;19.50;38.40;;;;;;5098271;28;20023;-37
2022/03/15 05:05:20;;;;;;;7.70;4.57;;;19.60;38.30;;;;;;5116275;28;20012;-37
2022/03/15 05:07:48;;;;;;;8.68;5.18;;;19.70;38.00;;;;;;5098684;28;20019;-38
2022/03/15 05:13:00;;;;;;;6.95;4.57;;;20.00;37.60;;;;;;5116678;28;20077;-37
2022/03/15 05:15:26;;;;;;;7.07;4.78;;;20.10;37.20;;;;;;5098650;28;20016;-37
2022/03/15 05:17:52;;;;;;;8.20;5.10;;;20.30;37.00;;;;;;5097515;28;20489;-37
2022/03/15 05:20:18;;;;;;;6.45;4.80;;;20.40;36.70;;;;;;5116833;28;20012;-38
2022/03/15 05:22:44;;;;;;;8.00;4.60;;;20.50;36.40;;;;;;5125259;27;20030;-37
2022/03/15 05:25:11;;;;;;;7.22;4.18;;;20.70;36.20;;;;;;5137273;27;20003;-37
2022/03/15 05:27:37;;;;;;;5.80;4.38;;;20.80;35.90;;;;;;5137050;27;20015;-37
2022/03/15 05:30:04;;;;;;;5.88;4.38;;;20.90;35.70;;;;;;5136511;27;20054;-38
2022/03/15 05:32:30;;;;;;;7.38;4.28;;;21.00;35.50;;;;;;5135479;27;20024;-38
2022/03/15 05:34:56;;;;;;;7.30;4.75;;;21.10;35.30;;;;;;5136648;27;20521;-39
2022/03/15 05:37:22;;;;;;;6.45;4.43;;;21.30;35.00;;;;;;5102057;27;20028;-38
2022/03/15 05:39:48;;;;;;;9.05;4.78;;;21.40;34.80;;;;;;5136452;27;20525;-38
2022/03/15 05:42:14;;;;;;;6.43;4.40;;;21.50;34.50;;;;;;5118402;27;20469;-37
2022/03/15 05:44:40;;;;;;;7.55;4.55;;;21.60;34.30;;;;;;5136506;27;20022;-38
2022/03/15 05:47:07;;;;;;;7.35;4.13;;;21.80;34.10;;;;;;5136470;27;20047;-38
2022/03/15 05:49:32;;;;;;;6.47;4.50;;;21.90;33.90;;;;;;5136065;27;20018;-38
2022/03/15 05:51:58;;;;;;;6.88;4.47;;;22.00;33.60;;;;;;5117970;27;20012;-38
2022/03/15 05:54:24;;;;;;;7.45;4.45;;;22.10;33.40;;;;;;5135940;27;20023;-38
2022/03/15 05:56:50;;;;;;;4.63;3.67;;;22.20;33.30;;;;;;5136281;27;20030;-38
2022/03/15 05:59:16;;;;;;;6.20;4.05;;;22.30;33.20;;;;;;5117728;27;20466;-36
2022/03/15 06:01:41;;;;;;;6.22;4.00;;;22.40;33.00;;;;;;5136033;27;20028;-37
2022/03/15 06:04:09;;;;;;;5.47;3.92;;;22.50;32.90;;;;;;5136601;27;20140;-36
2022/03/15 06:06:35;;;;;;;7.20;4.45;;;22.50;32.70;;;;;;5136299;27;20172;-36
2022/03/15 06:09:00;;;;;;;6.60;4.30;;;22.50;32.70;;;;;;5117487;27;20047;-37
2022/03/15 06:11:27;;;;;;;7.47;4.20;;;22.60;32.50;;;;;;5117654;27;20019;-37
2022/03/15 06:13:53;;;;;;;6.07;3.83;;;22.70;32.40;;;;;;5136216;27;20500;-36
2022/03/15 06:16:18;;;;;;;7.78;3.88;;;22.70;32.30;;;;;;5135071;27;20555;-36
2022/03/15 06:18:44;;;;;;;5.82;4.07;;;22.80;32.30;;;;;;5117187;27;20029;-37
2022/03/15 06:21:10;;;;;;;8.65;4.03;;;22.80;32.20;;;;;;5135049;27;20102;-38
2022/03/15 06:23:36;;;;;;;7.93;4.47;;;22.90;32.20;;;;;;5134787;27;20023;-37
2022/03/15 06:26:02;;;;;;;6.63;4.00;;;22.90;32.10;;;;;;5134180;27;20046;-39
2022/03/15 06:28:28;;;;;;;6.38;4.20;;;22.90;32.00;;;;;;5099204;27;20465;-38
2022/03/15 06:30:57;;;;;;;5.63;3.72;;;23.00;32.00;;;;;;5116275;27;20019;-43
2022/03/15 06:33:24;;;;;;;5.45;3.60;;;23.00;31.80;;;;;;5135869;27;20675;-39
2022/03/15 06:35:49;;;;;;;6.97;4.03;;;23.10;31.70;;;;;;5134865;27;20022;-39
2022/03/15 06:38:18;;;;;;;6.15;4.25;;;23.10;31.70;;;;;;5116239;27;20019;-39
2022/03/15 06:40:43;;;;;;;6.03;4.03;;;23.20;31.60;;;;;;5099612;27;20055;-39
2022/03/15 06:43:12;;;;;;;6.38;3.70;;;23.10;31.50;;;;;;5117171;27;20020;-40
2022/03/15 06:45:38;;;;;;;5.88;3.92;;;23.20;31.50;;;;;;5134927;27;20064;-39
2022/03/15 06:48:04;;;;;;;6.38;3.92;;;23.20;31.40;;;;;;5135311;27;20027;-40
2022/03/15 06:50:29;;;;;;;5.30;3.70;;;23.30;31.40;;;;;;5136252;28;20011;-39
2022/03/15 06:52:56;;;;;;;5.85;3.50;;;23.30;31.30;;;;;;5135650;28;20092;-39
2022/03/15 06:55:21;;;;;;;5.78;3.70;;;23.30;31.10;;;;;;5134739;28;20418;-38
2022/03/15 06:57:50;;;;;;;6.97;3.85;;;23.40;31.20;;;;;;5134979;28;20019;-45
2022/03/15 07:00:15;;;;;;;5.22;3.53;;;23.40;31.10;;;;;;5136068;28;20047;-39
2022/03/15 07:02:42;;;;;;;5.32;3.60;;;23.40;31.00;;;;;;5100007;28;20023;-42
2022/03/15 07:05:08;;;;;;;5.07;3.42;;;23.40;31.00;;;;;;5116849;28;20019;-37
2022/03/15 07:07:35;;;;;;;6.50;3.65;;;23.50;31.00;;;;;;5134160;28;20095;-37
2022/03/15 07:10:05;;;;;;;6.60;3.67;;;23.40;30.90;;;;;;5135189;28;20038;-38
2022/03/15 07:12:32;;;;;;;7.15;3.78;;;23.40;30.90;;;;;;5136953;28;20018;-38
2022/03/15 07:15:00;;;;;;;5.93;3.40;;;23.20;31.10;;;;;;5134734;28;20103;-38
2022/03/15 07:17:27;;;;;;;7.78;3.58;;;23.00;31.00;;;;;;5133696;28;20019;-37
2022/03/15 07:19:53;;;;;;;8.45;3.95;;;22.90;31.00;;;;;;5097963;28;20023;-37
2022/03/15 07:22:19;;;;;;;9.52;3.60;;;22.60;32.20;;;;;;5114369;28;20014;-38
2022/03/15 07:24:45;;;;;;;13.40;3.88;;;22.30;32.30;;;;;;5116625;28;20019;-37
2022/03/15 07:27:10;;;;;;;23.98;5.28;;;22.20;33.40;;;;;;5116765;28;20373;-39
2022/03/15 07:29:36;;;;;;;22.48;5.75;;;22.20;34.40;;;;;;5116230;28;20043;-37
2022/03/15 07:32:05;;;;;;;30.85;4.82;;;22.20;34.70;;;;;;5135129;28;20038;-37
2022/03/15 07:34:31;;;;;;;21.70;4.90;;;22.30;34.70;;;;;;5116692;28;20428;-40
2022/03/15 07:36:57;;;;;;;23.13;4.85;;;22.30;34.50;;;;;;5081902;28;20083;-43
2022/03/15 07:39:23;;;;;;;21.70;4.57;;;22.30;34.50;;;;;;5135372;28;20066;-39
2022/03/15 07:41:49;;;;;;;19.13;4.22;;;22.30;34.40;;;;;;5135103;28;20046;-37
2022/03/15 07:44:15;;;;;;;18.67;4.13;;;22.30;34.30;;;;;;5117200;28;20092;-37
2022/03/15 07:46:48;;;;;;;15.57;4.03;;;22.30;34.20;;;;;;5134793;28;20466;-39
2022/03/15 07:49:20;;;;;;;22.15;4.78;;;22.40;34.10;;;;;;5135863;28;20071;-38
2022/03/15 07:51:46;;;;;;;15.73;4.50;;;22.40;34.30;;;;;;5135307;28;20011;-37
2022/03/15 07:54:14;;;;;;;14.93;4.30;;;22.40;34.30;;;;;;5135069;28;20031;-38
2022/03/15 07:56:40;;;;;;;17.45;4.15;;;22.50;34.10;;;;;;5137764;27;20011;-38
2022/03/15 07:59:06;;;;;;;15.18;4.32;;;22.40;34.10;;;;;;5119911;27;20500;-37
2022/03/15 08:01:32;;;;;;;11.88;4.72;;;22.40;34.20;;;;;;5120485;27;20027;-36
2022/03/15 08:04:00;;;;;;;12.93;4.65;;;22.50;34.10;;;;;;5138677;27;20022;-42
2022/03/15 08:06:26;;;;;;;12.70;4.43;;;22.50;34.10;;;;;;5137180;27;20046;-43
2022/03/15 08:08:56;;;;;;;12.00;4.07;;;22.50;34.00;;;;;;5137932;27;20031;-37
2022/03/15 08:11:25;;;;;;;12.95;3.97;;;22.50;34.00;;;;;;5120596;27;20053;-37
2022/03/15 08:13:53;;;;;;;11.40;3.75;;;22.50;33.90;;;;;;5100568;27;20011;-37
2022/03/15 08:16:21;;;;;;;13.77;3.83;;;22.50;34.00;;;;;;5135195;27;20474;-38
2022/03/15 08:18:54;;;;;;;23.73;5.38;;;22.40;34.10;;;;;;5135057;27;20031;-37
2022/03/15 08:21:20;;;;;;;26.38;5.00;;;22.30;35.20;;;;;;5136234;27;20465;-38
2022/03/15 08:23:46;;;;;;;19.35;4.82;;;22.40;35.90;;;;;;5083742;27;20080;-36
2022/03/15 08:26:12;;;;;;;16.77;4.47;;;22.40;35.90;;;;;;5117731;27;20023;-36
2022/03/15 08:28:38;;;;;;;15.55;3.97;;;22.40;35.90;;;;;;5117407;27;20026;-36
2022/03/15 08:31:04;;;;;;;19.48;4.50;;;22.50;35.70;;;;;;5136086;27;20103;-36
2022/03/15 08:33:30;;;;;;;18.40;4.60;;;22.50;35.60;;;;;;5118068;27;20030;-36
2022/03/15 08:35:56;;;;;;;25.30;4.65;;;22.50;35.50;;;;;;5135812;27;20011;-36
2022/03/15 08:38:25;;;;;;;29.05;5.32;;;22.60;35.60;;;;;;5136087;27;20064;-36
2022/03/15 08:40:52;;;;;;;29.63;4.68;;;22.60;35.50;;;;;;5136083;27;20043;-40
2022/03/15 08:43:19;;;;;;;23.75;4.63;;;22.60;35.30;;;;;;5135666;27;20496;-36
2022/03/15 08:45:45;;;;;;;27.00;5.32;;;22.60;35.20;;;;;;5136589;27;20015;-36
2022/03/15 08:48:11;;;;;;;23.17;4.50;;;22.70;35.20;;;;;;5135747;27;20098;-37
2022/03/15 08:50:37;;;;;;;22.75;4.45;;;22.60;35.10;;;;;;5136343;27;20132;-36
2022/03/15 08:53:04;;;;;;;19.67;4.28;;;22.70;35.10;;;;;;5136541;27;20022;-37
2022/03/15 08:55:30;;;;;;;13.75;3.58;;;22.80;35.00;;;;;;5117275;27;20050;-39
2022/03/15 08:57:56;;;;;;;15.18;3.92;;;22.90;35.50;;;;;;5136627;27;20010;-36
2022/03/15 09:00:22;;;;;;;17.80;4.13;;;22.90;34.90;;;;;;5135724;27;20090;-37
2022/03/15 09:02:47;;;;;;;19.50;5.07;;;22.90;34.70;;;;;;5116607;27;20400;-36
2022/03/15 09:05:18;;;;;;;14.80;4.18;;;22.90;34.60;;;;;;5100622;27;20034;-36
2022/03/15 09:07:51;;;;;;;36.60;6.00;;;23.00;34.60;;;;;;5135453;27;20031;-38
2022/03/15 09:10:18;;;;;;;20.33;4.60;;;22.90;34.60;;;;;;5118133;27;20434;-38
2022/03/15 09:12:43;;;;;;;23.55;4.40;;;22.70;34.40;;;;;;5118575;27;20023;-37
2022/03/15 09:15:09;;;;;;;29.73;4.97;;;22.50;34.60;;;;;;5136669;27;20051;-37
2022/03/15 09:21:49;;;;;;;22.90;4.07;;;22.60;34.10;;;;;;5073811;23;20085;-94
2022/03/15 09:24:21;;;;;;;26.25;4.03;;;22.80;33.40;;;;;;5113469;28;20508;-94
2022/03/15 09:26:51;;;;;;;15.93;3.80;;;22.80;32.90;;;;;;5105849;28;20124;-95
2022/03/15 09:29:18;;;;;;;19.70;4.07;;;22.90;32.70;;;;;;5104335;22;20500;-40
2022/03/15 09:31:45;;;;;;;17.17;4.22;;;22.90;32.50;;;;;;5115133;28;20257;-41
2022/03/15 09:34:10;;;;;;;14.85;3.90;;;22.90;32.50;;;;;;5114882;28;20016;-38
2022/03/15 09:36:36;;;;;;;15.60;3.92;;;22.90;32.20;;;;;;5115515;28;20058;-38
2022/03/15 09:39:02;;;;;;;11.68;3.47;;;22.90;32.20;;;;;;5113657;28;20026;-39
2022/03/15 09:41:28;;;;;;;17.27;3.55;;;22.90;32.00;;;;;;5096668;28;20094;-38
2022/03/15 09:43:54;;;;;;;12.30;3.55;;;22.90;32.10;;;;;;5113542;28;20099;-38
2022/03/15 09:46:21;;;;;;;11.57;3.35;;;22.90;31.90;;;;;;5096260;28;20020;-38
2022/03/15 09:48:52;;;;;;;12.20;3.97;;;22.90;31.90;;;;;;5114584;28;20457;-38
2022/03/15 09:51:18;;;;;;;12.45;3.83;;;22.90;31.80;;;;;;5114048;28;20043;-38
2022/03/15 09:53:44;;;;;;;12.77;3.63;;;22.90;31.80;;;;;;5112864;28;20060;-37
2022/03/15 09:56:11;;;;;;;12.07;3.63;;;22.90;31.70;;;;;;5112282;28;20020;-38
2022/03/15 09:58:37;;;;;;;12.02;3.50;;;22.90;31.60;;;;;;5113194;28;20028;-38
2022/03/15 10:01:03;;;;;;;12.32;3.42;;;22.90;31.60;;;;;;5112157;28;20487;-38
2022/03/15 10:03:29;;;;;;;10.23;4.28;;;22.90;31.60;;;;;;5112682;28;20058;-38
2022/03/15 10:05:55;;;;;;;10.30;3.97;;;22.90;31.50;;;;;;5112333;28;20100;-38
2022/03/15 10:08:20;;;;;;;8.88;3.05;;;22.90;31.50;;;;;;5111544;28;20016;-36
2022/03/15 10:10:49;;;;;;;8.57;3.63;;;22.90;31.50;;;;;;5110958;28;20106;-43
2022/03/15 10:13:15;;;;;;;19.38;4.30;;;22.80;31.70;;;;;;5112368;28;20022;-37
2022/03/15 10:15:52;;;;;;;36.60;4.65;;;22.50;33.10;;;;;;5111900;28;20084;-38
2022/03/15 10:18:18;;;;;;;24.52;4.60;;;22.50;34.00;;;;;;5112415;28;20019;-35
2022/03/15 10:20:43;;;;;;;28.70;5.63;;;22.60;34.80;;;;;;5112534;28;20469;-35
2022/03/15 10:23:10;;;;;;;23.95;4.85;;;22.70;35.10;;;;;;5113047;28;20081;-38
2022/03/15 10:25:36;;;;;;;20.45;4.70;;;22.80;35.40;;;;;;5112572;28;20015;-35
2022/03/15 10:28:06;;;;;;;17.88;4.07;;;23.00;35.30;;;;;;5112900;28;20035;-35
2022/03/15 10:30:32;;;;;;;18.13;4.38;;;23.10;35.40;;;;;;5112395;28;20019;-38
2022/03/15 10:32:58;;;;;;;15.70;3.78;;;23.20;35.30;;;;;;5113126;28;20012;-36
2022/03/15 10:35:29;;;;;;;21.98;3.55;;;23.20;35.30;;;;;;5112947;28;20016;-36
2022/03/15 10:37:55;;;;;;;18.60;3.90;;;23.30;35.30;;;;;;5112939;28;20012;-36
2022/03/15 10:40:38;;;;;;;13.07;3.78;;;23.30;35.10;;;;;;5112980;28;20494;-35
2022/03/15 10:43:10;;;;;;;14.40;3.55;;;23.40;35.30;;;;;;5112703;28;20012;-36
2022/03/15 10:45:40;;;;;;;11.65;3.38;;;23.40;35.30;;;;;;5112911;28;20036;-37
2022/03/15 10:48:14;;;;;;;10.25;3.35;;;23.40;35.30;;;;;;5112799;28;20133;-39
2022/03/15 10:50:49;;;;;;;14.13;3.50;;;23.50;35.40;;;;;;5110906;28;20469;-38
2022/03/15 10:53:15;;;;;;;13.40;3.85;;;23.50;35.30;;;;;;5110650;28;20016;-38
2022/03/15 10:55:41;;;;;;;12.30;3.42;;;23.50;35.30;;;;;;5112771;28;20136;-40
2022/03/15 10:58:09;;;;;;;13.68;3.40;;;23.50;35.30;;;;;;5094714;28;20025;-38
2022/03/15 11:00:42;;;;;;;13.30;3.50;;;23.60;35.30;;;;;;5114095;28;20126;-40
2022/03/15 11:03:19;;;;;;;18.80;3.30;;;23.60;35.10;;;;;;5113539;28;20027;-39
2022/03/15 11:05:49;;;;;;;24.00;3.90;;;23.50;35.50;;;;;;5114515;28;20016;-41
2022/03/15 11:08:15;;;;;;;;;;;23.40;35.60;;;;;;5115084;28;20008;-40
2022/03/15 11:10:51;;;;;;;17.17;3.67;;;23.40;35.30;;;;;;5116235;28;19903;-45
2022/03/15 11:13:17;;;;;;;19.73;3.70;;;23.50;34.70;;;;;;5115433;28;20032;-40
2022/03/15 11:15:53;;;;;;;18.73;4.07;;;23.50;34.30;;;;;;5114699;28;20031;-39
2022/03/15 11:18:19;;;;;;;18.33;3.30;;;23.60;34.00;;;;;;5112847;28;20008;-38
2022/03/15 11:20:47;;;;;;;15.73;4.15;;;23.70;33.80;;;;;;5112686;28;20004;-40
2022/03/15 11:23:14;;;;;;;16.60;3.30;;;23.70;33.50;;;;;;5113541;28;20065;-40
2022/03/15 11:25:45;;;;;;;12.23;3.33;;;23.80;33.30;;;;;;5115687;28;20086;-40
2022/03/15 11:28:16;;;;;;;14.20;3.08;;;23.90;33.60;;;;;;5113582;28;20019;-42
2022/03/15 11:30:42;;;;;;;8.68;2.72;;;23.90;32.80;;;;;;5116424;28;20007;-47
2022/03/15 11:33:09;;;;;;;17.75;4.07;;;23.90;32.70;;;;;;5120332;28;20020;-41
2022/03/15 11:35:36;;;;;;;13.68;3.25;;;23.90;32.60;;;;;;5120303;28;20016;-41
2022/03/15 11:38:05;;;;;;;8.77;3.20;;;24.00;32.60;;;;;;5101248;28;20015;-39
2022/03/15 11:40:31;;;;;;;13.18;2.83;;;24.00;32.40;;;;;;5118120;28;20041;-40
2022/03/15 11:43:15;;;;;;;14.93;3.15;;;24.10;32.40;;;;;;5101347;28;20110;-40
2022/03/15 11:45:48;;;;;;;13.43;2.90;;;24.20;32.30;;;;;;5116138;28;20092;-37
2022/03/15 11:48:36;;;;;;;7.05;2.50;;;24.20;32.20;;;;;;5114928;28;20074;-37
2022/03/15 11:51:39;;;;;;;19.80;3.50;;;24.20;32.20;;;;;;5099237;28;20065;-38
2022/03/15 11:54:35;;;;;;;17.98;4.03;;;24.10;32.90;;;;;;5115621;28;20084;-37
2022/03/15 11:57:03;;;;;;;20.85;3.97;;;24.10;33.60;;;;;;5116938;28;20051;-37
2022/03/15 11:59:48;;;;;;;24.20;3.78;;;23.70;34.40;;;;;;5097679;28;20088;-38
2022/03/15 12:02:27;;;;;;;17.65;3.60;;;23.40;34.70;;;;;;5115442;28;20528;-37
2022/03/15 12:04:52;;;;;;;14.63;3.17;;;23.20;35.00;;;;;;5115059;28;20334;-38
2022/03/15 12:07:43;;;;;;;14.90;3.72;;;23.10;34.90;;;;;;5114724;28;20414;-38
2022/03/15 12:10:09;;;;;;;20.00;3.53;;;23.00;34.80;;;;;;5116551;28;20107;-38
2022/03/15 12:12:35;;;;;;;14.07;3.40;;;23.00;34.80;;;;;;5097793;28;20046;-45
2022/03/15 12:15:12;;;;;;;17.00;3.03;;;23.00;34.90;;;;;;5115712;28;20038;-37
2022/03/15 12:17:42;;;;;;;15.85;3.22;;;23.00;34.90;;;;;;5115689;28;20040;-37
2022/03/15 12:20:14;;;;;;;7.85;2.88;;;22.90;35.00;;;;;;5115717;28;20016;-36
2022/03/15 12:22:41;;;;;;;7.93;3.70;;;22.80;35.10;;;;;;5113290;28;20047;-36
2022/03/15 12:25:10;;;;;;;12.00;2.45;;;22.80;35.40;;;;;;5114739;28;20035;-38
2022/03/15 12:27:39;;;;;;;11.18;2.92;;;22.70;35.30;;;;;;5113912;28;20044;-37
2022/03/15 12:30:06;;;;;;;9.63;2.97;;;22.80;35.30;;;;;;5113861;28;20176;-36
2022/03/15 12:32:31;;;;;;;7.65;2.42;;;22.70;35.40;;;;;;5114311;28;20028;-37
2022/03/15 12:34:58;;;;;;;8.57;2.70;;;22.80;35.20;;;;;;5115334;28;20008;-37
2022/03/15 12:37:32;;;;;;;9.68;2.30;;;22.90;35.30;;;;;;5113020;28;20019;-37
2022/03/15 12:40:01;;;;;;;10.52;2.30;;;22.90;35.10;;;;;;5114482;28;20118;-38
2022/03/15 12:42:27;;;;;;;13.50;2.47;;;22.90;35.30;;;;;;5112692;28;20015;-36
2022/03/15 12:44:59;;;;;;;10.95;2.67;;;22.90;35.50;;;;;;5116309;28;20033;-36
2022/03/15 12:47:29;;;;;;;10.20;2.22;;;22.90;35.40;;;;;;5116495;28;20036;-39
2022/03/15 12:50:14;;;;;;;11.95;2.58;;;23.10;35.20;;;;;;5115763;28;20007;-40
2022/03/15 12:52:45;;;;;;;13.75;2.70;;;23.10;35.00;;;;;;5115758;28;20497;-38